Time;durP1;ratioP1;P1;durP2;ratioP2;P2;SDS_P1;SDS_P2;PMS_P1;PMS_P2;Temp;Humidity;BMP_temperature;BMP_pressure;BME280_temperature;BME280_humidity;BME280_pressure;Samples;Min_cycle;Max_cycle;Signal;HPM_P1;HPM_P2
2022/03/20 00:02:51;;;;;;;16.97;14.87;;;9.10;53.60;;;;;;6098992;23;20416;-84
2022/03/20 00:05:17;;;;;;;18.20;13.83;;;9.20;54.00;;;;;;6088413;23;20436;-84
2022/03/20 00:07:46;;;;;;;20.70;15.63;;;9.40;52.80;;;;;;6085356;23;20416;-84
2022/03/20 00:10:14;;;;;;;17.63;14.47;;;9.20;52.70;;;;;;6086228;23;20805;-83
2022/03/20 00:12:45;;;;;;;15.67;13.43;;;9.10;53.00;;;;;;6089187;23;20401;-85
2022/03/20 00:15:12;;;;;;;17.03;14.70;;;9.00;53.20;;;;;;6086859;23;20449;-85
2022/03/20 00:17:39;;;;;;;18.97;15.40;;;9.00;53.20;;;;;;6101092;23;20443;-84
2022/03/20 00:20:15;;;;;;;16.80;14.37;;;9.00;53.00;;;;;;6092381;23;20405;-84
2022/03/20 00:22:42;;;;;;;22.37;15.60;;;9.00;52.70;;;;;;6087501;23;20455;-83
2022/03/20 00:25:23;;;;;;;18.10;14.40;;;9.00;52.70;;;;;;6065721;23;20520;-83
2022/03/20 00:27:52;;;;;;;17.37;14.30;;;8.90;52.80;;;;;;6086788;23;20419;-83
2022/03/20 00:30:19;;;;;;;19.10;14.93;;;9.10;52.40;;;;;;6088592;23;20495;-81
2022/03/20 00:32:46;;;;;;;16.20;14.20;;;9.10;52.50;;;;;;6092286;23;20436;-83
2022/03/20 00:35:13;;;;;;;16.23;13.90;;;9.20;52.60;;;;;;6090951;23;20471;-85
2022/03/20 00:37:40;;;;;;;18.27;15.43;;;9.20;52.50;;;;;;6060890;23;20780;-85
2022/03/20 00:40:07;;;;;;;17.07;13.90;;;9.20;53.00;;;;;;6062739;23;20796;-86
2022/03/20 00:42:34;;;;;;;17.37;14.43;;;9.10;52.60;;;;;;6088536;23;20411;-85
2022/03/20 00:45:01;;;;;;;16.17;12.70;;;9.00;52.90;;;;;;6086730;23;20433;-84
2022/03/20 00:47:27;;;;;;;18.83;14.73;;;9.10;52.70;;;;;;6086253;23;20944;-83
2022/03/20 00:49:59;;;;;;;18.53;15.77;;;8.90;52.00;;;;;;6084904;23;20393;-82
2022/03/20 00:52:25;;;;;;;16.53;13.70;;;9.00;52.40;;;;;;6088679;23;20411;-83
2022/03/20 00:54:52;;;;;;;17.70;13.80;;;9.00;52.30;;;;;;6092473;23;20476;-84
2022/03/20 00:57:19;;;;;;;19.90;14.20;;;8.80;52.20;;;;;;6084129;23;20405;-85
2022/03/20 00:59:49;;;;;;;20.77;14.20;;;8.90;52.90;;;;;;6085083;23;20429;-84
2022/03/20 01:02:15;;;;;;;16.17;14.13;;;8.80;52.50;;;;;;6089170;23;20414;-82
2022/03/20 01:04:42;;;;;;;16.93;13.80;;;8.80;53.00;;;;;;6085746;23;20436;-82
2022/03/20 01:07:09;;;;;;;18.77;13.77;;;8.90;52.50;;;;;;6097708;23;20741;-83
2022/03/20 01:09:36;;;;;;;17.50;14.20;;;8.90;52.70;;;;;;6097522;23;20472;-83
2022/03/20 01:12:04;;;;;;;15.93;14.23;;;9.00;53.00;;;;;;6093631;23;20413;-84
2022/03/20 01:14:31;;;;;;;18.30;14.07;;;9.00;52.60;;;;;;6088755;23;20441;-84
2022/03/20 01:16:57;;;;;;;20.80;14.50;;;8.90;52.50;;;;;;6086960;23;20413;-83
2022/03/20 01:19:25;;;;;;;17.23;14.60;;;8.90;52.70;;;;;;6086452;23;20409;-82
2022/03/20 01:21:53;;;;;;;17.20;15.10;;;9.00;52.80;;;;;;6066986;23;20530;-82
2022/03/20 01:24:22;;;;;;;17.60;15.17;;;9.00;52.30;;;;;;6099600;23;20436;-83
2022/03/20 01:26:49;;;;;;;18.43;14.60;;;9.00;51.50;;;;;;6076244;23;20404;-83
2022/03/20 01:29:15;;;;;;;20.23;15.10;;;9.00;51.70;;;;;;6100909;23;20449;-84
2022/03/20 01:31:42;;;;;;;17.97;14.93;;;8.90;51.50;;;;;;6101039;23;20487;-83
2022/03/20 01:34:10;;;;;;;16.80;14.63;;;8.90;51.90;;;;;;6102299;23;20508;-83
2022/03/20 01:36:37;;;;;;;15.03;13.37;;;8.70;52.00;;;;;;6100759;23;20468;-85
2022/03/20 01:39:04;;;;;;;15.37;13.30;;;8.70;51.80;;;;;;6098847;23;20404;-79
2022/03/20 01:41:31;;;;;;;18.33;13.50;;;8.60;51.90;;;;;;6074338;23;20417;-84
2022/03/20 01:43:59;;;;;;;16.80;13.60;;;8.70;51.80;;;;;;6100247;23;20803;-84
2022/03/20 01:46:29;;;;;;;15.30;13.17;;;8.80;51.30;;;;;;6075389;23;20508;-83
2022/03/20 01:48:57;;;;;;;16.90;13.13;;;8.60;51.20;;;;;;6073434;23;20416;-83
2022/03/20 01:52:10;;;;;;;16.90;14.20;;;8.80;51.40;;;;;;6076657;23;20455;-81
2022/03/20 01:54:11;;;;;;;17.23;14.00;;;8.80;50.70;;;;;;6107167;23;20811;-83
2022/03/20 01:56:46;;;;;;;17.40;14.93;;;8.80;50.90;;;;;;6107275;23;20456;-83
2022/03/20 01:59:15;;;;;;;16.80;14.17;;;8.70;50.70;;;;;;6100948;23;20460;-82
2022/03/20 02:01:42;;;;;;;18.07;14.27;;;8.50;51.10;;;;;;6071555;23;20422;-83
2022/03/20 02:04:13;;;;;;;14.97;12.90;;;8.60;51.40;;;;;;6097771;23;20452;-84
2022/03/20 02:06:44;;;;;;;16.73;14.60;;;8.70;50.90;;;;;;6097625;23;20389;-84
2022/03/20 02:09:11;;;;;;;17.10;13.23;;;8.70;50.50;;;;;;6086491;23;20817;-84
2022/03/20 02:11:39;;;;;;;14.37;12.47;;;8.80;50.20;;;;;;6061468;23;20423;-84
2022/03/20 02:14:06;;;;;;;17.27;14.60;;;8.80;49.60;;;;;;6087492;23;20433;-83
2022/03/20 02:16:34;;;;;;;18.70;13.53;;;8.90;49.90;;;;;;6063002;23;20782;-84
2022/03/20 02:19:02;;;;;;;16.90;14.00;;;8.80;49.90;;;;;;6088828;23;20512;-83
2022/03/20 02:21:46;;;;;;;28.23;13.83;;;8.80;50.20;;;;;;6091706;23;20423;-84
2022/03/20 02:24:33;;;;;;;19.10;14.57;;;8.70;49.40;;;;;;6064212;23;20450;-84
2022/03/20 02:27:09;;;;;;;15.77;13.50;;;8.50;50.40;;;;;;6092349;23;20420;-83
2022/03/20 02:29:37;;;;;;;15.70;12.97;;;8.50;50.30;;;;;;6074397;23;20413;-82
2022/03/20 02:32:05;;;;;;;16.93;13.53;;;8.50;50.50;;;;;;6079501;23;20476;-83
2022/03/20 02:34:32;;;;;;;19.67;13.50;;;8.50;51.00;;;;;;6104596;23;20425;-84
2022/03/20 02:37:03;;;;;;;17.37;13.50;;;8.50;50.10;;;;;;6079413;23;20479;-84
2022/03/20 02:39:30;;;;;;;16.67;13.80;;;8.40;50.30;;;;;;6075823;23;20408;-81
2022/03/20 02:42:01;;;;;;;18.13;13.93;;;8.50;50.70;;;;;;6103536;23;20413;-83
2022/03/20 02:44:52;;;;;;;18.07;13.87;;;8.40;50.50;;;;;;6077364;23;20408;-83
2022/03/20 02:47:23;;;;;;;19.77;13.33;;;8.40;50.70;;;;;;6103560;23;20454;-85
2022/03/20 02:49:56;;;;;;;16.70;13.30;;;8.40;50.60;;;;;;6099569;23;20583;-84
2022/03/20 02:52:48;;;;;;;17.77;13.57;;;8.50;50.20;;;;;;6099669;23;20468;-84
2022/03/20 02:55:26;;;;;;;16.80;14.13;;;8.40;49.60;;;;;;6086827;23;20460;-83
2022/03/20 02:57:55;;;;;;;18.70;13.90;;;8.30;49.80;;;;;;6077724;23;20459;-83
2022/03/20 03:00:25;;;;;;;14.73;13.20;;;8.30;50.10;;;;;;6095095;23;20412;-84
2022/03/20 03:02:55;;;;;;;18.50;14.77;;;8.40;50.50;;;;;;6068097;23;20444;-83
2022/03/20 03:05:27;;;;;;;20.57;14.00;;;8.40;50.60;;;;;;6059291;23;20437;-84
2022/03/20 03:10:57;;;;;;;18.17;14.40;;;8.40;50.20;;;;;;6101078;23;20401;-80
2022/03/20 03:13:25;;;;;;;18.60;14.40;;;8.50;50.40;;;;;;6097278;23;20548;-83
2022/03/20 03:15:53;;;;;;;16.43;14.10;;;8.50;49.80;;;;;;6088398;23;20452;-84
2022/03/20 03:18:21;;;;;;;13.60;12.20;;;8.40;50.00;;;;;;6089676;23;20825;-85
2022/03/20 03:20:47;;;;;;;15.47;12.80;;;8.50;49.90;;;;;;6090213;23;20484;-85
2022/03/20 03:23:15;;;;;;;19.93;15.00;;;8.40;49.70;;;;;;6065367;23;20468;-84
2022/03/20 03:25:42;;;;;;;16.50;14.70;;;8.20;50.00;;;;;;6089803;23;20408;-84
2022/03/20 03:28:11;;;;;;;17.67;13.27;;;8.20;50.40;;;;;;6087836;23;20408;-85
2022/03/20 03:30:40;;;;;;;17.37;14.40;;;8.20;51.00;;;;;;6090534;23;20409;-85
2022/03/20 03:33:07;;;;;;;17.33;13.73;;;8.30;50.80;;;;;;6089933;23;20472;-85
2022/03/20 03:35:42;;;;;;;15.83;13.87;;;8.30;50.90;;;;;;6089526;23;20432;-84
2022/03/20 03:38:16;;;;;;;17.43;15.23;;;8.20;51.10;;;;;;6089145;23;20930;-84
2022/03/20 03:40:45;;;;;;;17.17;14.07;;;8.30;51.10;;;;;;6090660;23;20433;-85
2022/03/20 03:43:14;;;;;;;17.30;13.27;;;8.20;51.40;;;;;;6091493;23;20400;-85
2022/03/20 03:45:42;;;;;;;18.50;14.80;;;8.30;51.40;;;;;;6065628;23;20421;-85
2022/03/20 03:48:10;;;;;;;15.73;13.97;;;8.40;51.60;;;;;;6091732;23;20911;-85
2022/03/20 03:50:39;;;;;;;20.37;15.50;;;8.20;51.10;;;;;;6067716;23;20424;-82
2022/03/20 03:53:08;;;;;;;17.37;14.30;;;8.10;51.40;;;;;;6073854;23;20433;-83
2022/03/20 03:55:34;;;;;;;19.43;14.47;;;8.10;51.60;;;;;;6067964;23;20445;-84
2022/03/20 03:58:01;;;;;;;19.17;15.10;;;8.20;51.70;;;;;;6070713;23;20392;-83
2022/03/20 04:00:32;;;;;;;20.53;15.50;;;8.10;51.10;;;;;;6112185;23;20764;-85
2022/03/20 04:03:00;;;;;;;18.50;13.90;;;8.10;50.90;;;;;;6108702;23;20401;-84
2022/03/20 04:05:30;;;;;;;19.60;14.60;;;8.20;51.10;;;;;;6109325;23;20443;-85
2022/03/20 04:07:57;;;;;;;19.10;15.27;;;8.20;51.20;;;;;;6109983;23;20431;-83
2022/03/20 04:10:24;;;;;;;17.80;14.53;;;8.10;51.60;;;;;;6108109;23;20412;-84
2022/03/20 04:12:51;;;;;;;18.20;14.67;;;8.20;51.90;;;;;;6105792;23;20496;-84
2022/03/20 04:15:25;;;;;;;18.87;14.70;;;8.10;51.00;;;;;;6094577;23;20451;-82
2022/03/20 04:17:52;;;;;;;21.13;14.70;;;8.10;51.30;;;;;;6080663;23;20408;-81
2022/03/20 04:20:19;;;;;;;17.43;13.70;;;8.10;51.80;;;;;;6055678;23;20428;-82
2022/03/20 04:25:32;;;;;;;17.00;14.67;;;8.00;51.40;;;;;;6084534;23;20412;-84
2022/03/20 04:27:59;;;;;;;18.63;15.00;;;8.00;51.90;;;;;;6059497;23;20444;-81
2022/03/20 04:30:27;;;;;;;16.63;14.27;;;8.10;52.00;;;;;;6086867;23;20463;-82
2022/03/20 04:32:55;;;;;;;21.27;15.57;;;8.00;51.30;;;;;;6087202;23;20448;-84
2022/03/20 04:35:23;;;;;;;19.20;15.20;;;7.90;51.50;;;;;;6087380;23;21069;-84
2022/03/20 04:37:54;;;;;;;22.40;15.83;;;7.90;52.10;;;;;;6072408;23;20409;-84
2022/03/20 04:40:21;;;;;;;18.93;15.07;;;7.90;52.00;;;;;;6109392;23;20396;-84
2022/03/20 04:42:49;;;;;;;21.13;16.03;;;7.80;52.20;;;;;;6091690;23;20416;-85
2022/03/20 04:45:16;;;;;;;21.53;15.47;;;7.90;52.40;;;;;;6087216;23;20437;-83
2022/03/20 04:58:46;;;;;;;20.77;16.77;;;7.90;51.60;;;;;;6082394;23;20412;-82
2022/03/20 05:01:14;;;;;;;21.30;17.00;;;7.80;51.50;;;;;;6080763;23;20417;-83
2022/03/20 05:03:40;;;;;;;19.80;16.60;;;7.80;51.80;;;;;;6081514;23;20523;-83
2022/03/20 05:06:07;;;;;;;20.90;15.87;;;7.70;51.90;;;;;;6054789;23;20423;-82
2022/03/20 05:08:36;;;;;;;22.87;16.37;;;7.70;51.70;;;;;;6081965;23;20424;-83
2022/03/20 05:13:49;;;;;;;18.63;15.20;;;7.80;52.10;;;;;;6082264;23;20443;-82
2022/03/20 05:16:16;;;;;;;17.97;15.53;;;7.80;51.90;;;;;;6083390;23;20741;-81
2022/03/20 05:18:44;;;;;;;21.33;14.73;;;7.80;51.90;;;;;;6084607;23;20418;-83
2022/03/20 05:21:10;;;;;;;20.40;15.73;;;7.90;52.30;;;;;;6082288;23;20411;-83
2022/03/20 05:23:38;;;;;;;19.70;15.70;;;7.90;52.00;;;;;;6082505;23;20499;-85
2022/03/20 05:26:05;;;;;;;18.40;14.97;;;7.80;52.20;;;;;;6082458;23;20416;-85
2022/03/20 05:28:35;;;;;;;20.70;15.77;;;7.90;52.20;;;;;;6057813;23;20488;-85
2022/03/20 05:31:03;;;;;;;18.73;15.27;;;7.90;52.40;;;;;;6081898;23;21380;-84
2022/03/20 05:33:31;;;;;;;19.67;15.50;;;7.90;52.40;;;;;;6061404;23;20683;-85
2022/03/20 05:36:02;;;;;;;20.57;14.93;;;7.90;52.60;;;;;;6087214;23;20467;-85
2022/03/20 05:38:36;;;;;;;20.30;17.90;;;8.10;52.40;;;;;;6083652;23;20487;-85
2022/03/20 05:43:52;;;;;;;22.57;17.03;;;7.90;52.50;;;;;;6088501;23;20451;-83
2022/03/20 05:46:19;;;;;;;21.27;15.03;;;7.90;52.70;;;;;;6089652;23;20401;-83
2022/03/20 05:48:46;;;;;;;18.40;14.53;;;8.00;52.80;;;;;;6057592;23;20424;-84
2022/03/20 05:51:15;;;;;;;20.30;15.33;;;8.00;52.30;;;;;;6082543;23;20409;-84
2022/03/20 05:53:44;;;;;;;18.80;15.70;;;8.00;52.50;;;;;;6055982;23;20464;-83
2022/03/20 05:58:57;;;;;;;19.37;15.77;;;8.10;52.70;;;;;;6083182;23;20392;-84
2022/03/20 06:01:24;;;;;;;18.43;15.43;;;8.20;52.70;;;;;;6057456;23;20520;-84
2022/03/20 06:03:51;;;;;;;23.77;16.60;;;8.30;52.40;;;;;;6081248;23;20464;-84
2022/03/20 06:06:17;;;;;;;23.70;16.53;;;8.30;52.20;;;;;;6084580;23;20897;-84
2022/03/20 06:08:44;;;;;;;20.87;16.30;;;8.20;52.20;;;;;;6079184;23;20417;-84
2022/03/20 06:11:10;;;;;;;23.60;17.63;;;8.10;53.00;;;;;;6056548;23;20424;-83
2022/03/20 06:13:38;;;;;;;23.53;16.80;;;8.20;52.80;;;;;;6089744;23;20436;-82
2022/03/20 06:16:08;;;;;;;21.90;15.30;;;8.40;52.80;;;;;;6089442;23;20516;-84
2022/03/20 06:18:37;;;;;;;19.27;15.50;;;8.70;52.70;;;;;;6057168;23;20408;-83
2022/03/20 06:21:05;;;;;;;21.77;16.77;;;9.10;51.80;;;;;;6056004;23;20412;-84
2022/03/20 06:23:33;;;;;;;20.47;17.20;;;9.10;51.40;;;;;;6081767;23;20436;-84
2022/03/20 06:26:00;;;;;;;22.20;16.60;;;8.80;51.60;;;;;;6082251;23;20417;-84
2022/03/20 06:28:26;;;;;;;22.13;17.40;;;8.60;51.90;;;;;;6082026;23;20417;-85
2022/03/20 06:30:54;;;;;;;22.47;17.33;;;8.60;52.40;;;;;;6056576;23;20413;-84
2022/03/20 06:33:20;;;;;;;18.90;15.53;;;8.60;52.20;;;;;;6057225;23;20417;-84
2022/03/20 06:35:47;;;;;;;23.23;17.07;;;8.70;52.30;;;;;;6084419;23;21241;-83
2022/03/20 06:38:17;;;;;;;21.17;16.67;;;8.60;51.90;;;;;;6040234;23;21231;-83
2022/03/20 06:40:44;;;;;;;20.60;15.87;;;8.60;52.10;;;;;;6059082;23;20431;-82
2022/03/20 06:43:10;;;;;;;23.83;18.20;;;8.70;52.20;;;;;;6082318;23;20461;-83
2022/03/20 06:45:37;;;;;;;23.30;17.47;;;8.70;52.00;;;;;;6080506;23;20519;-82
2022/03/20 06:48:04;;;;;;;22.33;17.43;;;8.80;51.90;;;;;;6055674;23;20413;-84
2022/03/20 06:50:31;;;;;;;20.37;15.90;;;8.80;51.40;;;;;;6061307;23;20795;-83
2022/03/20 06:53:02;;;;;;;19.73;14.60;;;8.80;51.80;;;;;;6083853;23;20404;-82
2022/03/20 06:55:30;;;;;;;22.93;16.40;;;8.70;52.00;;;;;;6083374;23;20455;-83
2022/03/20 06:57:58;;;;;;;25.90;18.60;;;8.70;51.90;;;;;;6083005;23;20452;-84
2022/03/20 07:00:26;;;;;;;23.37;17.17;;;8.70;51.80;;;;;;6081716;23;20804;-82
2022/03/20 07:02:53;;;;;;;21.00;13.23;;;8.60;52.10;;;;;;6056828;23;20431;-84
2022/03/20 07:05:21;;;;;;;22.80;17.47;;;8.70;52.40;;;;;;6081221;23;20435;-81
2022/03/20 07:07:50;;;;;;;25.60;17.33;;;8.70;51.80;;;;;;6057446;23;20421;-83
2022/03/20 07:10:21;;;;;;;18.40;14.83;;;8.80;51.90;;;;;;6081961;23;20426;-83
2022/03/20 07:12:50;;;;;;;22.77;16.53;;;8.80;51.90;;;;;;6085381;23;20485;-83
2022/03/20 07:15:20;;;;;;;23.93;16.00;;;8.90;51.70;;;;;;6062363;23;20442;-81
2022/03/20 07:17:48;;;;;;;23.50;17.93;;;8.80;51.80;;;;;;6096844;23;20444;-84
2022/03/20 07:20:17;;;;;;;22.13;16.93;;;8.90;52.40;;;;;;6091146;23;20413;-84
2022/03/20 07:22:48;;;;;;;22.93;18.00;;;9.10;52.00;;;;;;6064541;23;20427;-84
2022/03/20 07:30:45;;;;;;;24.53;18.80;;;12.30;46.40;;;;;;6082901;23;20399;-83
2022/03/20 07:33:12;;;;;;;22.97;16.90;;;13.20;44.90;;;;;;6082830;23;20451;-84
2022/03/20 07:35:39;;;;;;;18.50;15.10;;;13.80;43.40;;;;;;6082880;23;20512;-82
2022/03/20 07:38:06;;;;;;;21.40;17.17;;;13.20;42.60;;;;;;6056978;23;20519;-84
2022/03/20 07:40:33;;;;;;;20.70;16.30;;;13.00;43.10;;;;;;6082865;23;20417;-84
2022/03/20 07:43:00;;;;;;;22.53;17.87;;;13.20;43.30;;;;;;6084415;23;20413;-84
2022/03/20 07:45:27;;;;;;;20.77;17.03;;;13.20;42.90;;;;;;6060416;23;20479;-84
2022/03/20 07:47:54;;;;;;;20.47;16.37;;;13.40;42.80;;;;;;6082553;23;20431;-83
2022/03/20 07:50:20;;;;;;;22.47;15.30;;;13.40;42.90;;;;;;6083315;23;20420;-86
2022/03/20 07:52:47;;;;;;;23.73;17.63;;;13.40;42.50;;;;;;6083231;23;20492;-83
2022/03/20 07:55:15;;;;;;;22.20;18.83;;;13.10;43.00;;;;;;6082414;23;20954;-84
2022/03/20 07:57:42;;;;;;;27.23;19.17;;;13.70;43.00;;;;;;6081445;23;20448;-83
2022/03/20 08:00:10;;;;;;;20.07;16.97;;;14.30;42.20;;;;;;6080899;23;20421;-84
2022/03/20 08:02:37;;;;;;;21.67;17.07;;;14.60;41.10;;;;;;6055917;23;20423;-85
2022/03/20 08:05:04;;;;;;;24.60;19.00;;;14.50;40.80;;;;;;6082875;23;21034;-85
2022/03/20 08:07:38;;;;;;;22.33;19.23;;;14.90;41.50;;;;;;6084678;23;20425;-86
2022/03/20 08:10:09;;;;;;;23.47;18.87;;;15.10;39.80;;;;;;6061094;23;20489;-83
2022/03/20 08:12:38;;;;;;;24.57;20.50;;;14.00;40.70;;;;;;6060258;23;20448;-84
2022/03/20 08:15:09;;;;;;;22.70;19.20;;;12.40;42.40;;;;;;6084213;23;20448;-83
2022/03/20 08:17:43;;;;;;;21.93;18.27;;;11.40;44.60;;;;;;6083800;23;21378;-85
2022/03/20 08:20:11;;;;;;;22.60;18.23;;;11.00;46.00;;;;;;6058494;23;20888;-83
2022/03/20 08:22:38;;;;;;;23.87;17.23;;;10.90;47.40;;;;;;6058962;23;20846;-83
2022/03/20 08:25:06;;;;;;;23.30;18.20;;;10.80;47.40;;;;;;6083304;23;20440;-84
2022/03/20 08:27:49;;;;;;;24.03;19.03;;;10.70;48.00;;;;;;6084176;23;20431;-83
2022/03/20 08:30:17;;;;;;;22.87;18.37;;;10.40;48.00;;;;;;6095375;23;20586;-83
2022/03/20 08:32:48;;;;;;;23.83;18.83;;;10.50;48.20;;;;;;6059303;23;20432;-84
2022/03/20 08:35:16;;;;;;;21.50;17.70;;;10.50;48.40;;;;;;6059230;23;21443;-84
2022/03/20 08:37:48;;;;;;;24.30;18.33;;;10.50;48.60;;;;;;6083519;23;20796;-83
2022/03/20 08:40:17;;;;;;;25.67;19.87;;;10.40;48.40;;;;;;6060128;23;20415;-83
2022/03/20 08:42:45;;;;;;;21.77;17.33;;;10.10;49.10;;;;;;6063643;23;20415;-84
2022/03/20 08:45:13;;;;;;;26.90;18.67;;;10.10;49.70;;;;;;6088429;23;21050;-83
2022/03/20 08:47:43;;;;;;;26.37;19.30;;;10.20;49.60;;;;;;6087364;23;20911;-83
2022/03/20 08:50:13;;;;;;;26.87;17.00;;;10.40;49.70;;;;;;6062478;23;20532;-84
2022/03/20 08:52:44;;;;;;;22.43;18.43;;;10.30;49.40;;;;;;6062020;23;20427;-83
2022/03/20 08:55:12;;;;;;;26.13;19.57;;;10.40;49.60;;;;;;6061550;23;20428;-83
2022/03/20 08:57:44;;;;;;;23.73;18.70;;;10.50;49.10;;;;;;6087187;23;20444;-83
2022/03/20 09:00:15;;;;;;;20.73;16.13;;;10.50;49.30;;;;;;6060610;23;20908;-84
2022/03/20 09:02:48;;;;;;;23.40;18.47;;;10.50;49.20;;;;;;6061566;23;20420;-84
2022/03/20 09:05:16;;;;;;;26.90;20.67;;;10.40;49.70;;;;;;6085268;23;20466;-82
2022/03/20 09:07:45;;;;;;;24.83;19.07;;;10.30;50.00;;;;;;6059500;23;20423;-83
2022/03/20 09:10:14;;;;;;;27.97;19.60;;;10.30;50.20;;;;;;6058019;23;20428;-83
2022/03/20 09:12:45;;;;;;;24.83;18.40;;;10.30;50.10;;;;;;6058390;23;20424;-84
2022/03/20 09:15:15;;;;;;;16.00;12.67;;;10.40;50.50;;;;;;6082468;23;20450;-82
2022/03/20 09:20:33;;;;;;;25.70;19.93;;;10.20;50.90;;;;;;6084224;23;20381;-84
2022/03/20 09:23:01;;;;;;;27.10;20.37;;;10.20;51.10;;;;;;6060020;23;20409;-83
2022/03/20 09:25:29;;;;;;;23.07;18.90;;;10.40;51.20;;;;;;6096564;23;20460;-84
2022/03/20 09:28:04;;;;;;;25.30;18.90;;;10.40;51.90;;;;;;6073966;23;20959;-86
2022/03/20 09:30:37;;;;;;;24.87;19.83;;;10.30;51.50;;;;;;6099817;23;20841;-85
2022/03/20 09:33:25;;;;;;;26.60;19.63;;;10.40;51.60;;;;;;6070822;23;20405;-84
2022/03/20 09:35:53;;;;;;;19.77;16.13;;;10.60;51.50;;;;;;6095460;23;20416;-86
2022/03/20 09:38:31;;;;;;;23.03;16.40;;;10.70;51.10;;;;;;6072437;23;20444;-83
2022/03/20 09:41:08;;;;;;;24.27;18.80;;;10.60;50.90;;;;;;6065336;23;20412;-84
2022/03/20 09:43:41;;;;;;;25.33;17.50;;;10.70;50.60;;;;;;6091102;23;20431;-86
2022/03/20 09:46:20;;;;;;;29.93;20.50;;;10.90;50.80;;;;;;6066933;23;20443;-86
2022/03/20 09:48:52;;;;;;;20.90;17.87;;;11.30;50.50;;;;;;6066142;23;20440;-85
2022/03/20 09:51:19;;;;;;;25.87;18.97;;;11.00;50.00;;;;;;6095836;23;20415;-85
2022/03/20 09:53:46;;;;;;;27.90;20.93;;;11.20;50.40;;;;;;6091753;23;20450;-85
2022/03/20 09:56:15;;;;;;;29.67;20.93;;;11.50;49.80;;;;;;6092887;23;20412;-84
2022/03/20 09:58:46;;;;;;;25.43;21.53;;;11.20;50.10;;;;;;6107746;23;20511;-85
2022/03/20 10:01:14;;;;;;;27.90;21.40;;;11.50;50.40;;;;;;6105172;23;20463;-86
2022/03/20 10:03:43;;;;;;;26.23;20.07;;;11.50;50.00;;;;;;6072989;23;20436;-84
2022/03/20 10:06:17;;;;;;;29.00;21.07;;;11.40;50.00;;;;;;6086261;23;20507;-84
2022/03/20 10:08:56;;;;;;;24.57;20.10;;;11.20;50.50;;;;;;6066318;23;20424;-85
2022/03/20 10:11:26;;;;;;;28.47;22.20;;;12.00;50.70;;;;;;6098188;23;20413;-86
2022/03/20 10:14:14;;;;;;;24.50;18.40;;;12.50;49.30;;;;;;6081087;23;21009;-86
2022/03/20 10:17:11;;;;;;;23.83;21.30;;;13.30;48.20;;;;;;6071489;23;20416;-85
2022/03/20 10:19:42;;;;;;;25.33;21.90;;;13.20;47.60;;;;;;6071612;23;20412;-86
2022/03/20 10:22:17;;;;;;;27.33;21.63;;;13.30;48.20;;;;;;6096428;23;20413;-88
2022/03/20 10:24:53;;;;;;;25.43;22.13;;;13.60;47.30;;;;;;6069439;23;20495;-86
2022/03/20 10:27:22;;;;;;;27.00;20.33;;;13.70;47.00;;;;;;6070657;23;20428;-85
2022/03/20 10:30:03;;;;;;;26.33;20.67;;;13.60;46.50;;;;;;6094863;23;20436;-82
2022/03/20 10:32:49;;;;;;;23.67;17.50;;;13.00;47.40;;;;;;6071419;23;20420;-83
2022/03/20 10:35:21;;;;;;;23.33;18.10;;;12.90;48.20;;;;;;6094256;23;20428;-85
2022/03/20 10:38:10;;;;;;;25.63;20.60;;;12.70;48.30;;;;;;6094341;23;20451;-85
2022/03/20 10:40:57;;;;;;;28.57;21.80;;;12.70;49.20;;;;;;6071177;23;20484;-86
2022/03/20 10:43:26;;;;;;;26.60;22.10;;;12.50;49.90;;;;;;6070951;23;20448;-88
2022/03/20 10:46:01;;;;;;;25.00;21.87;;;12.40;49.50;;;;;;6071159;23;20411;-85
2022/03/20 10:48:35;;;;;;;25.90;20.30;;;13.30;49.40;;;;;;6070264;23;20412;-85
2022/03/20 10:51:07;;;;;;;28.93;22.43;;;14.20;47.60;;;;;;6068876;23;20412;-87
2022/03/20 10:54:01;;;;;;;26.40;18.77;;;14.30;46.90;;;;;;6069055;23;20437;-83
2022/03/20 10:56:29;;;;;;;26.10;22.63;;;14.50;46.30;;;;;;6069906;23;20416;-86
2022/03/20 10:59:17;;;;;;;23.20;20.67;;;14.30;46.20;;;;;;6077389;23;20460;-86
2022/03/20 11:01:53;;;;;;;26.07;23.10;;;14.80;45.70;;;;;;6073751;23;20421;-84
2022/03/20 11:04:31;;;;;;;24.97;22.30;;;14.70;45.60;;;;;;6073564;23;20436;-85
2022/03/20 11:07:16;;;;;;;26.20;20.53;;;15.20;45.40;;;;;;6095882;23;20416;-87
2022/03/20 11:09:47;;;;;;;22.00;18.80;;;15.20;44.70;;;;;;6092321;23;20404;-86
2022/03/20 11:12:34;;;;;;;30.30;23.50;;;15.00;46.20;;;;;;6068489;23;20416;-85
2022/03/20 11:15:10;;;;;;;28.23;23.27;;;14.60;45.50;;;;;;6070573;23;21155;-85
2022/03/20 11:18:00;;;;;;;27.03;24.07;;;14.80;46.20;;;;;;6074165;23;20451;-84
2022/03/20 11:20:33;;;;;;;25.70;22.90;;;14.60;47.00;;;;;;6070830;23;20502;-85
2022/03/20 11:23:09;;;;;;;26.20;23.40;;;15.10;46.60;;;;;;6073725;23;20460;-84
2022/03/20 11:25:43;;;;;;;28.30;24.10;;;15.20;45.70;;;;;;6072682;23;20408;-85
2022/03/20 11:28:16;;;;;;;26.27;22.10;;;14.90;46.50;;;;;;6072347;23;20407;-84
2022/03/20 11:30:54;;;;;;;28.93;23.60;;;14.90;47.10;;;;;;6096818;23;20479;-84
2022/03/20 11:33:44;;;;;;;26.87;22.40;;;15.20;46.40;;;;;;5992361;23;20509;-84
2022/03/20 11:36:18;;;;;;;24.57;21.83;;;14.60;46.80;;;;;;6010915;23;20423;-85
2022/03/20 11:39:10;;;;;;;24.87;21.33;;;14.20;47.70;;;;;;6009370;23;20443;-84
2022/03/20 11:41:46;;;;;;;24.23;21.63;;;13.70;48.80;;;;;;5985769;23;20518;-83
2022/03/20 11:44:21;;;;;;;27.90;22.30;;;13.80;49.40;;;;;;6009955;23;20435;-86
2022/03/20 11:47:21;;;;;;;27.77;22.80;;;13.90;49.70;;;;;;5985824;23;20418;-84
2022/03/20 11:50:25;;;;;;;26.93;22.90;;;14.50;49.10;;;;;;6015251;23;20454;-82
2022/03/20 11:53:02;;;;;;;26.10;19.27;;;14.10;49.50;;;;;;6041653;23;20424;-83
2022/03/20 11:55:41;;;;;;;25.67;22.30;;;14.20;50.10;;;;;;6076798;23;20515;-83
2022/03/20 11:58:24;;;;;;;26.10;22.47;;;14.20;50.50;;;;;;6077430;23;20519;-83
2022/03/20 12:01:09;;;;;;;22.90;18.83;;;14.10;50.80;;;;;;6075608;23;20412;-86
2022/03/20 12:04:13;;;;;;;24.63;20.87;;;13.60;52.20;;;;;;6080694;23;20399;-83
2022/03/20 12:07:03;;;;;;;24.13;20.80;;;13.40;53.00;;;;;;6104115;23;20432;-83
2022/03/20 12:09:36;;;;;;;24.73;20.90;;;13.30;53.80;;;;;;6075581;23;21129;-81
2022/03/20 12:12:40;;;;;;;24.50;18.33;;;13.40;54.10;;;;;;6099127;23;20427;-83
2022/03/20 12:15:11;;;;;;;22.20;19.73;;;13.40;54.30;;;;;;6097885;23;20528;-82
2022/03/20 12:18:05;;;;;;;25.63;21.63;;;13.30;54.60;;;;;;6071402;23;20453;-83
2022/03/20 12:20:59;;;;;;;25.87;20.77;;;13.30;55.40;;;;;;6072269;23;20409;-82
2022/03/20 12:23:32;;;;;;;24.63;19.83;;;13.30;55.00;;;;;;6094384;23;20444;-84
2022/03/20 12:26:36;;;;;;;;;;;;;;;;;;;;;
2022/03/20 12:29:38;;;;;;;25.60;20.37;;;13.00;57.20;;;;;;6098086;23;20511;-85
2022/03/20 12:32:12;;;;;;;29.00;22.37;;;13.30;57.60;;;;;;6097728;23;20432;-83
2022/03/20 12:34:44;;;;;;;24.10;21.43;;;13.30;57.80;;;;;;6073673;23;20437;-82
2022/03/20 12:37:34;;;;;;;23.27;19.30;;;13.20;58.20;;;;;;6073347;23;20416;-85
2022/03/20 12:40:21;;;;;;;25.73;20.67;;;13.20;58.10;;;;;;6095640;23;20403;-83
2022/03/20 12:43:10;;;;;;;21.73;19.30;;;13.40;57.30;;;;;;6089378;23;20393;-82
2022/03/20 12:45:43;;;;;;;24.50;17.43;;;13.40;56.90;;;;;;6082789;23;20488;-85
2022/03/20 12:48:17;;;;;;;26.70;21.90;;;13.50;56.50;;;;;;6080725;23;20429;-84
2022/03/20 12:50:48;;;;;;;24.40;20.97;;;13.30;56.70;;;;;;6087811;23;20372;-84
2022/03/20 12:53:16;;;;;;;22.93;18.97;;;13.20;57.20;;;;;;6103224;23;20420;-85
2022/03/20 12:55:58;;;;;;;25.27;22.47;;;13.20;57.30;;;;;;6099824;23;21014;-85
2022/03/20 12:58:26;;;;;;;25.00;20.63;;;13.20;57.40;;;;;;6092782;23;20428;-84
2022/03/20 13:00:58;;;;;;;26.87;20.80;;;13.10;58.00;;;;;;6075919;23;20448;-82
2022/03/20 13:03:29;;;;;;;27.63;20.40;;;13.10;58.00;;;;;;6100183;23;20437;-85
2022/03/20 13:06:04;;;;;;;28.30;19.90;;;13.50;57.50;;;;;;6073560;23;20397;-84
2022/03/20 13:08:44;;;;;;;25.73;21.50;;;13.50;57.20;;;;;;6074746;23;20417;-85
2022/03/20 13:14:16;;;;;;;26.30;20.90;;;13.50;57.50;;;;;;6099458;23;20532;-85
2022/03/20 13:16:59;;;;;;;24.73;19.90;;;13.40;57.80;;;;;;6075203;23;20797;-85
2022/03/20 13:19:28;;;;;;;25.60;19.53;;;13.40;58.50;;;;;;6098166;23;20829;-82
2022/03/20 13:21:56;;;;;;;25.80;19.97;;;13.30;58.70;;;;;;6100047;23;20425;-83
2022/03/20 13:24:36;;;;;;;29.37;20.57;;;13.40;58.50;;;;;;6074603;23;20479;-85
2022/03/20 13:27:06;;;;;;;25.37;19.70;;;13.40;58.80;;;;;;6074352;23;20884;-83
2022/03/20 13:29:34;;;;;;;24.00;19.67;;;13.60;58.30;;;;;;6076798;23;20499;-81
2022/03/20 13:32:11;;;;;;;23.10;20.20;;;13.50;58.60;;;;;;6075872;23;20415;-82
2022/03/20 13:34:53;;;;;;;21.33;17.47;;;13.60;58.40;;;;;;6080121;23;20439;-84